Time;durP1;ratioP1;P1;durP2;ratioP2;P2;SDS_P1;SDS_P2;PMS_P1;PMS_P2;Temp;Humidity;BMP_temperature;BMP_pressure;BME280_temperature;BME280_humidity;BME280_pressure;Samples;Min_cycle;Max_cycle;Signal;HPM_P1;HPM_P2
2020/01/19 00:02:08;;;;;;;12.7;9.7;;;;;;;4.18;78.30176;971.5659;;;;
2020/01/19 00:07:19;;;;;;;13.1;11.7;;;;;;;4.21;78.13477;971.5627;;;;
2020/01/19 00:09:49;;;;;;;11.7;10;;;;;;;4.09;78.47168;971.5229;;;;
2020/01/19 00:14:15;;;;;;;12.1;10.6;;;;;;;4;78.59277;971.6069;;;;
2020/01/19 00:16:33;;;;;;;11.1;9.2;;;;;;;3.98;79.23633;971.6161;;;;
2020/01/19 00:18:55;;;;;;;11;9.2;;;;;;;3.98;79.58203;971.6241;;;;
2020/01/19 00:21:20;;;;;;;11.8;9.9;;;;;;;4.05;79.24902;971.6336;;;;
2020/01/19 00:23:45;;;;;;;10.9;9.6;;;;;;;4.05;79.30664;971.5789;;;;
2020/01/19 00:26:11;;;;;;;10.1;9.1;;;;;;;4.07;78.72168;971.5366;;;;
2020/01/19 00:28:36;;;;;;;11.4;9.5;;;;;;;3.96;79.21973;971.5717;;;;
2020/01/19 00:31:01;;;;;;;13.1;11.7;;;;;;;4.11;78.89063;971.6306;;;;
2020/01/19 00:33:26;;;;;;;12.9;10.5;;;;;;;4.07;78.7793;971.6164;;;;
2020/01/19 00:35:51;;;;;;;12.8;10.8;;;;;;;4.05;78.75293;971.6763;;;;
2020/01/19 00:38:16;;;;;;;13.2;9.9;;;;;;;4.06;79.03125;971.7114;;;;
2020/01/19 00:40:41;;;;;;;12;10.6;;;;;;;4.09;79.12891;971.7533;;;;
2020/01/19 00:43:06;;;;;;;11.4;10.2;;;;;;;4.01;79.29883;971.6853;;;;
2020/01/19 00:45:31;;;;;;;12;9.4;;;;;;;4.07;79.02148;971.6856;;;;
2020/01/19 00:47:56;;;;;;;11.6;9.7;;;;;;;4.03;79.19922;971.7356;;;;
2020/01/19 00:50:21;;;;;;;11;9.7;;;;;;;4.11;79.17969;971.8101;;;;
2020/01/19 00:52:46;;;;;;;13.8;10.4;;;;;;;4.15;79.13965;971.8325;;;;
2020/01/19 00:55:12;;;;;;;13.2;10.7;;;;;;;4.18;78.72949;971.8035;;;;
2020/01/19 00:57:37;;;;;;;13.7;10.2;;;;;;;4.18;78.99609;971.7841;;;;
2020/01/19 01:00:02;;;;;;;11.6;10;;;;;;;4.16;79.03906;971.832;;;;
2020/01/19 01:02:28;;;;;;;12.1;10.8;;;;;;;4.2;79.19629;971.8792;;;;
2020/01/19 01:04:52;;;;;;;12.8;11.5;;;;;;;4.07;79.64453;971.9827;;;;
2020/01/19 01:07:17;;;;;;;15.1;11.2;;;;;;;4.08;79.6709;972.0336;;;;
2020/01/19 01:09:42;;;;;;;12.3;11;;;;;;;4.15;79.56738;972.0264;;;;
2020/01/19 01:12:07;;;;;;;12;10.7;;;;;;;4.18;79.23926;972.0345;;;;
2020/01/19 01:14:32;;;;;;;12.5;11.2;;;;;;;4.23;78.78516;972.0712;;;;
2020/01/19 01:16:57;;;;;;;15.7;11.7;;;;;;;4.24;78.63672;972.1287;;;;
2020/01/19 01:19:23;;;;;;;12.9;11.2;;;;;;;4.29;78.49805;972.0807;;;;
2020/01/19 01:21:48;;;;;;;13.1;11.3;;;;;;;4.28;78.65625;972.1309;;;;
2020/01/19 01:24:13;;;;;;;13.3;10.6;;;;;;;4.3;78.97266;972.0781;;;;
2020/01/19 01:26:38;;;;;;;12.3;11;;;;;;;4.34;78.71387;972.0937;;;;
2020/01/19 01:29:03;;;;;;;12.9;11.5;;;;;;;4.3;78.24414;972.0879;;;;
2020/01/19 01:31:28;;;;;;;13.3;11.9;;;;;;;4.31;77.7041;972.0768;;;;
2020/01/19 01:33:53;;;;;;;14.4;11.5;;;;;;;4.29;78.14941;972.0905;;;;
2020/01/19 01:36:18;;;;;;;13.6;11.8;;;;;;;4.28;78.4834;972.1002;;;;
2020/01/19 01:38:43;;;;;;;12.8;11.3;;;;;;;4.29;78.57715;972.1146;;;;
2020/01/19 01:41:08;;;;;;;13.2;11.9;;;;;;;4.23;78.6709;972.1078;;;;
2020/01/19 01:43:33;;;;;;;13.5;11.5;;;;;;;4.27;78.75684;972.1065;;;;
2020/01/19 01:45:58;;;;;;;14.1;12.1;;;;;;;4.19;78.96387;972.1463;;;;
2020/01/19 01:48:24;;;;;;;13.7;12.3;;;;;;;4.2;79.16113;972.1547;;;;
2020/01/19 01:50:49;;;;;;;12.9;11.4;;;;;;;4.22;79.33789;972.2188;;;;
2020/01/19 01:53:14;;;;;;;13.2;11.8;;;;;;;4.21;79.23047;972.1964;;;;
2020/01/19 01:55:39;;;;;;;14.4;12.9;;;;;;;4.29;78.72754;972.1863;;;;
2020/01/19 01:58:04;;;;;;;15.2;12.8;;;;;;;4.36;78.07031;972.1909;;;;
2020/01/19 02:00:29;;;;;;;17.5;13.6;;;;;;;4.33;78.03027;972.1418;;;;
2020/01/19 02:04:00;;;;;;;13.5;12.1;;;;;;;4.2;78.45703;972.1941;;;;
2020/01/19 02:05:24;;;;;;;16;12.1;;;;;;;4.22;78.63379;972.2067;;;;
2020/01/19 02:07:49;;;;;;;13.9;12.5;;;;;;;4.2;78.75684;972.2303;;;;
2020/01/19 02:15:04;;;;;;;12.8;11.4;;;;;;;4.23;78.69238;972.3273;;;;
2020/01/19 02:17:25;;;;;;;14.6;13.1;;;;;;;4.13;78.80176;972.3682;;;;
2020/01/19 02:19:50;;;;;;;15.5;12.9;;;;;;;4.17;78.60254;972.3173;;;;
2020/01/19 02:22:15;;;;;;;14.4;12.5;;;;;;;4.17;78.50977;972.3303;;;;
2020/01/19 02:24:40;;;;;;;15.2;13.6;;;;;;;4.22;78.30957;972.3412;;;;
2020/01/19 02:27:05;;;;;;;14.2;12.3;;;;;;;4.24;78.43066;972.3389;;;;
2020/01/19 02:29:30;;;;;;;15;13.4;;;;;;;4.23;78.28809;972.3427;;;;
2020/01/19 02:31:55;;;;;;;16.5;13;;;;;;;4.24;78.08398;972.3147;;;;
2020/01/19 02:34:20;;;;;;;16.6;13.7;;;;;;;4.35;77.46777;972.2844;;;;
2020/01/19 02:36:46;;;;;;;14.5;13;;;;;;;4.3;77.81641;972.3456;;;;
2020/01/19 02:39:11;;;;;;;17.7;14.2;;;;;;;4.2;78.01855;972.3463;;;;
2020/01/19 02:41:36;;;;;;;15.6;13.9;;;;;;;4.24;78.03809;972.3904;;;;
2020/01/19 02:44:01;;;;;;;16.8;13.4;;;;;;;4.24;78.16309;972.4082;;;;
2020/01/19 02:46:26;;;;;;;18.1;14.3;;;;;;;4.3;78.34961;972.3761;;;;
2020/01/19 02:48:51;;;;;;;21.4;19.1;;;;;;;4.32;78.49121;972.39;;;;
2020/01/19 02:51:17;;;;;;;16.6;14;;;;;;;4.28;77.80176;972.4047;;;;
2020/01/19 02:53:42;;;;;;;17.4;15.4;;;;;;;4.24;78.17676;972.4299;;;;
2020/01/19 02:56:07;;;;;;;18.4;16.3;;;;;;;4.3;78.10547;972.464;;;;
2020/01/19 02:58:32;;;;;;;18.4;16.5;;;;;;;4.35;77.69922;972.5115;;;;
2020/01/19 03:00:57;;;;;;;18.5;15.6;;;;;;;4.32;78.08496;972.535;;;;
2020/01/19 03:03:22;;;;;;;20.4;16.1;;;;;;;4.28;78.65625;972.4836;;;;
2020/01/19 03:05:47;;;;;;;22.9;17.4;;;;;;;4.31;78.51074;972.4844;;;;
2020/01/19 03:08:13;;;;;;;21.4;16.3;;;;;;;4.35;78.14941;972.5059;;;;
2020/01/19 03:10:38;;;;;;;23.4;16.6;;;;;;;4.28;78.41406;972.5022;;;;
2020/01/19 03:13:03;;;;;;;22.6;17.3;;;;;;;4.35;78.20703;972.5051;;;;
2020/01/19 03:15:28;;;;;;;18.9;15.5;;;;;;;4.38;78.01758;972.5639;;;;
2020/01/19 03:17:53;;;;;;;18.6;15.7;;;;;;;4.38;78.30469;972.6183;;;;
2020/01/19 03:20:18;;;;;;;20.7;16;;;;;;;4.39;78.13477;972.6507;;;;
2020/01/19 03:22:43;;;;;;;19.3;15.4;;;;;;;4.4;78.34375;972.644;;;;
2020/01/19 03:25:08;;;;;;;18.8;15.3;;;;;;;4.41;78.04492;972.6431;;;;
2020/01/19 03:27:33;;;;;;;19;16;;;;;;;4.29;78.39258;972.634;;;;
2020/01/19 03:29:59;;;;;;;18.5;15.5;;;;;;;4.44;77.95801;972.6383;;;;
2020/01/19 03:32:24;;;;;;;17.2;14.8;;;;;;;4.36;77.8623;972.6855;;;;
2020/01/19 03:34:49;;;;;;;17.4;15.3;;;;;;;4.39;77.91504;972.7039;;;;
2020/01/19 03:37:14;;;;;;;21.7;16.1;;;;;;;4.34;77.95117;972.7046;;;;
2020/01/19 03:39:39;;;;;;;16.1;14.1;;;;;;;4.38;77.65918;972.6638;;;;
2020/01/19 03:42:04;;;;;;;18.3;14.8;;;;;;;4.39;77.7998;972.6967;;;;
2020/01/19 03:44:30;;;;;;;18;14.9;;;;;;;4.39;77.5332;972.7587;;;;
2020/01/19 03:46:55;;;;;;;20.3;15.9;;;;;;;4.35;78.16309;972.7701;;;;
2020/01/19 03:49:20;;;;;;;16.8;14.9;;;;;;;4.35;77.72168;972.7452;;;;
2020/01/19 03:51:48;;;;;;;17.5;15.3;;;;;;;4.28;78.00977;972.7728;;;;
2020/01/19 03:54:40;;;;;;;18.2;14.6;;;;;;;4.4;77.12891;972.7885;;;;
2020/01/19 03:59:27;;;;;;;19.9;15.4;;;;;;;4.32;77.96973;972.8;;;;
2020/01/19 04:02:53;;;;;;;18.2;15.2;;;;;;;4.35;77.82617;972.8588;;;;
2020/01/19 04:04:51;;;;;;;18.1;15.4;;;;;;;4.31;77.8877;972.8993;;;;
2020/01/19 04:07:16;;;;;;;17.6;15.7;;;;;;;4.31;78.30469;972.8613;;;;
2020/01/19 04:09:41;;;;;;;17.4;15.5;;;;;;;4.32;78.3291;972.8965;;;;
2020/01/19 04:12:06;;;;;;;17.7;15.8;;;;;;;4.27;78.27148;972.8973;;;;
2020/01/19 04:14:32;;;;;;;18.9;16.3;;;;;;;4.23;78.39453;972.8987;;;;
2020/01/19 04:16:57;;;;;;;18.2;15.7;;;;;;;4.32;78.01758;972.8797;;;;
2020/01/19 04:19:22;;;;;;;19.3;15.3;;;;;;;4.29;77.93164;972.9022;;;;
2020/01/19 04:21:47;;;;;;;18.8;16.4;;;;;;;4.3;78.2207;972.9288;;;;
2020/01/19 04:24:12;;;;;;;17.1;15.3;;;;;;;4.3;78.53223;972.9867;;;;
2020/01/19 04:26:37;;;;;;;17.6;15.8;;;;;;;4.29;78.76172;973.0126;;;;
2020/01/19 04:29:02;;;;;;;17.6;15.7;;;;;;;4.27;78.81641;973.0041;;;;
2020/01/19 04:31:27;;;;;;;17.2;15.2;;;;;;;4.35;78.28809;973.0303;;;;
2020/01/19 04:33:52;;;;;;;17.9;16;;;;;;;4.37;78.1875;973.0525;;;;
2020/01/19 04:36:17;;;;;;;19.5;16.2;;;;;;;4.4;77.96289;973.0291;;;;
2020/01/19 04:38:42;;;;;;;19.9;17.4;;;;;;;4.29;77.71191;973.0617;;;;
2020/01/19 04:41:08;;;;;;;19.5;17.4;;;;;;;4.29;77.95215;973.09;;;;
2020/01/19 04:43:33;;;;;;;18.9;17;;;;;;;4.26;78.36426;973.0931;;;;
2020/01/19 04:46:09;;;;;;;19.1;17;;;;;;;4.29;79.0625;973.1407;;;;
2020/01/19 04:48:59;;;;;;;20.9;17.9;;;;;;;4.32;78.70898;973.1069;;;;
2020/01/19 04:50:52;;;;;;;21;18.2;;;;;;;4.23;78.25391;973.1283;;;;
2020/01/19 04:53:55;;;;;;;20.5;17.9;;;;;;;4.19;77.7373;973.2134;;;;
2020/01/19 04:55:42;;;;;;;21.9;18.5;;;;;;;4.12;78.04785;973.1841;;;;
2020/01/19 04:58:03;;;;;;;20.3;17.3;;;;;;;4.13;78.57129;973.159;;;;
2020/01/19 05:00:28;;;;;;;21.5;18.6;;;;;;;4.07;78.58301;973.2555;;;;
2020/01/19 05:02:53;;;;;;;19.2;17.2;;;;;;;4;78.20215;973.264;;;;
2020/01/19 05:05:18;;;;;;;20.2;18;;;;;;;3.93;78.54492;973.2947;;;;
2020/01/19 05:07:44;;;;;;;21.4;18.3;;;;;;;3.87;79.1123;973.3179;;;;
2020/01/19 05:10:09;;;;;;;21.5;18.8;;;;;;;3.86;78.98242;973.3672;;;;
2020/01/19 05:12:34;;;;;;;21.7;18.6;;;;;;;3.78;78.91016;973.3778;;;;
2020/01/19 05:14:59;;;;;;;21.5;18.2;;;;;;;3.73;79.12109;973.3887;;;;
2020/01/19 05:17:24;;;;;;;21.4;19.1;;;;;;;3.67;79.4209;973.3553;;;;
2020/01/19 05:19:49;;;;;;;22.3;18.4;;;;;;;3.68;78.98438;973.3431;;;;
2020/01/19 05:22:14;;;;;;;19.8;17.7;;;;;;;3.66;79.10645;973.3317;;;;
2020/01/19 05:24:39;;;;;;;22.4;18.3;;;;;;;3.58;78.77051;973.4612;;;;
2020/01/19 05:27:09;;;;;;;20.5;17.6;;;;;;;3.56;78.73047;973.4269;;;;
2020/01/19 05:29:34;;;;;;;21.8;17.6;;;;;;;3.58;78.88574;973.437;;;;
2020/01/19 05:32:31;;;;;;;23.1;18.2;;;;;;;3.59;78.93359;973.4708;;;;
2020/01/19 05:36:49;;;;;;;20.8;16.7;;;;;;;3.54;78.4043;973.5553;;;;
2020/01/19 05:39:10;;;;;;;22.2;18.4;;;;;;;3.49;79.14453;973.5707;;;;
2020/01/19 05:41:35;;;;;;;25.4;18.1;;;;;;;3.47;78.97754;973.6277;;;;
2020/01/19 05:44:00;;;;;;;22.6;17.4;;;;;;;3.59;78.86426;973.6541;;;;
2020/01/19 05:46:25;;;;;;;21.9;17.1;;;;;;;3.55;78.35059;973.6715;;;;
2020/01/19 05:48:50;;;;;;;20.6;16.5;;;;;;;3.63;78.90527;973.6933;;;;
2020/01/19 05:51:15;;;;;;;21.7;16.6;;;;;;;3.67;78.48633;973.7028;;;;
2020/01/19 05:53:40;;;;;;;20.4;16.7;;;;;;;3.7;78.36426;973.6993;;;;
2020/01/19 05:56:05;;;;;;;24.3;17;;;;;;;3.76;78.00684;973.742;;;;
2020/01/19 05:58:30;;;;;;;23.8;18.1;;;;;;;3.64;77.94922;973.7598;;;;
2020/01/19 06:00:55;;;;;;;20.9;16.4;;;;;;;3.63;77.66016;973.7817;;;;
2020/01/19 06:03:20;;;;;;;21.6;17;;;;;;;3.58;77.31738;973.8328;;;;
2020/01/19 06:05:46;;;;;;;23.6;16.9;;;;;;;3.58;77.63867;973.8481;;;;
2020/01/19 06:08:11;;;;;;;23.7;17.4;;;;;;;3.52;77.34082;973.858;;;;
2020/01/19 06:10:36;;;;;;;22.2;16.2;;;;;;;3.67;77.19434;973.9144;;;;
2020/01/19 06:13:01;;;;;;;24.7;17.2;;;;;;;3.67;76.75684;974.0062;;;;
2020/01/19 06:15:26;;;;;;;26.3;18.5;;;;;;;3.63;77.44043;974.011;;;;
2020/01/19 06:17:51;;;;;;;20.6;16.6;;;;;;;3.69;77.1748;973.9561;;;;
2020/01/19 06:20:16;;;;;;;24.4;17.5;;;;;;;3.69;77.41699;973.9786;;;;
2020/01/19 06:22:41;;;;;;;24.6;17.3;;;;;;;3.68;77.34473;974.0344;;;;
2020/01/19 06:25:20;;;;;;;26.1;17.2;;;;;;;3.64;76.76172;974.0504;;;;
2020/01/19 06:27:45;;;;;;;20.9;16.7;;;;;;;3.67;76.87207;974.0609;;;;
2020/01/19 06:30:35;;;;;;;23.7;17.9;;;;;;;3.75;76.76074;974.0931;;;;
2020/01/19 06:32:49;;;;;;;25.9;16.8;;;;;;;3.71;76.49805;974.0875;;;;
2020/01/19 06:35:09;;;;;;;24.3;17.2;;;;;;;3.73;75.83301;974.125;;;;
2020/01/19 06:37:43;;;;;;;20.4;17.1;;;;;;;3.63;76.28906;974.13;;;;
2020/01/19 06:42:16;;;;;;;22;17;;;;;;;3.75;76.25;974.2001;;;;
2020/01/19 06:44:41;;;;;;;24.3;16.9;;;;;;;3.7;75.83984;974.2147;;;;
2020/01/19 06:47:11;;;;;;;27.6;18.5;;;;;;;3.77;75.5166;974.2514;;;;
2020/01/19 06:49:36;;;;;;;26.5;18.7;;;;;;;3.59;76.1543;974.2653;;;;
2020/01/19 06:52:01;;;;;;;26.3;20.5;;;;;;;3.63;76.01172;974.291;;;;
2020/01/19 06:54:26;;;;;;;26.8;20.1;;;;;;;3.57;76.37988;974.3446;;;;
2020/01/19 06:57:02;;;;;;;24.7;19.1;;;;;;;3.45;77.1084;974.4073;;;;
2020/01/19 07:01:56;;;;;;;27;20.1;;;;;;;3.56;78.31543;974.4221;;;;
2020/01/19 07:04:07;;;;;;;25.2;20.4;;;;;;;3.44;77.91211;974.4327;;;;
2020/01/19 07:06:32;;;;;;;27.3;20.8;;;;;;;3.32;78.31836;974.3978;;;;
2020/01/19 07:08:57;;;;;;;23;19.1;;;;;;;3.26;78.8252;974.4341;;;;
2020/01/19 07:11:22;;;;;;;23.1;18.9;;;;;;;3.29;78.66895;974.4359;;;;
2020/01/19 07:13:52;;;;;;;27.3;19.8;;;;;;;3.26;78.70996;974.4639;;;;
2020/01/19 07:16:47;;;;;;;24.5;19.5;;;;;;;3.21;78.79199;974.504;;;;
2020/01/19 07:19:37;;;;;;;25.2;20.7;;;;;;;3.27;78.51367;974.4525;;;;
2020/01/19 07:21:03;;;;;;;24.6;20.5;;;;;;;3.32;78.05273;974.5151;;;;
2020/01/19 07:23:28;;;;;;;24.5;19.6;;;;;;;3.38;77.70508;974.5494;;;;
2020/01/19 07:25:53;;;;;;;23.1;18.7;;;;;;;3.52;77.47852;974.6367;;;;
2020/01/19 07:28:18;;;;;;;24.8;18.8;;;;;;;3.61;77.99219;974.652;;;;
2020/01/19 07:30:43;;;;;;;26.2;19.7;;;;;;;3.7;76.73828;974.6674;;;;
2020/01/19 07:33:08;;;;;;;27.4;22;;;;;;;3.8;76.12109;974.7031;;;;
2020/01/19 07:35:33;;;;;;;25.8;19.4;;;;;;;3.82;75.97559;974.7064;;;;
2020/01/19 07:37:58;;;;;;;25.5;19.3;;;;;;;3.76;75.86133;974.7553;;;;
2020/01/19 07:40:24;;;;;;;25.1;19.5;;;;;;;3.81;76.05469;974.7533;;;;
2020/01/19 07:42:49;;;;;;;25.2;19.5;;;;;;;3.84;75.65625;974.8278;;;;
2020/01/19 07:45:14;;;;;;;24.1;19.3;;;;;;;3.95;75.06348;974.8312;;;;
2020/01/19 07:47:39;;;;;;;24.7;19.4;;;;;;;4.11;74.61914;974.8706;;;;
2020/01/19 07:50:04;;;;;;;27.6;20.2;;;;;;;4.33;73.80273;974.8989;;;;
2020/01/19 07:52:29;;;;;;;26.3;20.6;;;;;;;4.02;74.1748;974.9908;;;;
2020/01/19 07:54:54;;;;;;;22.7;18.6;;;;;;;4.11;74.41113;975.0196;;;;
2020/01/19 07:57:20;;;;;;;25;19.4;;;;;;;3.93;75.52148;975.1647;;;;
2020/01/19 07:59:45;;;;;;;28.4;21.1;;;;;;;3.86;76.75684;975.1959;;;;
2020/01/19 08:02:10;;;;;;;27;21.7;;;;;;;3.78;77.63086;975.2126;;;;
2020/01/19 08:04:35;;;;;;;24.6;19.8;;;;;;;3.81;77.3584;975.2743;;;;
2020/01/19 08:07:00;;;;;;;25.9;18.9;;;;;;;3.89;76.78418;975.3115;;;;
2020/01/19 08:09:25;;;;;;;23.6;20;;;;;;;3.94;76.46973;975.3256;;;;
2020/01/19 08:11:51;;;;;;;27.7;20.4;;;;;;;4.04;76.08301;975.3158;;;;
2020/01/19 08:14:16;;;;;;;24;20.1;;;;;;;4.15;75.6875;975.3345;;;;
2020/01/19 08:16:41;;;;;;;23.3;18.7;;;;;;;4.28;74.79883;975.347;;;;
2020/01/19 08:19:06;;;;;;;24.4;18.9;;;;;;;4.19;74.75977;975.3997;;;;
2020/01/19 08:21:31;;;;;;;23;18.5;;;;;;;4.21;74.78613;975.4265;;;;
2020/01/19 08:23:57;;;;;;;23.5;18.4;;;;;;;4.34;74.28906;975.4328;;;;
2020/01/19 08:26:22;;;;;;;23;18.8;;;;;;;4.47;74.13965;975.4073;;;;
2020/01/19 08:28:47;;;;;;;24;18.2;;;;;;;4.88;73.2627;975.4047;;;;
2020/01/19 08:31:12;;;;;;;28;21.4;;;;;;;5.13;71.81152;975.4708;;;;
2020/01/19 08:33:37;;;;;;;29;20.4;;;;;;;5.12;71.8916;975.4596;;;;
2020/01/19 08:36:02;;;;;;;25.6;20;;;;;;;5.03;71.87695;975.5334;;;;
2020/01/19 08:38:27;;;;;;;22.2;19.7;;;;;;;5.08;72;975.5526;;;;
2020/01/19 08:40:52;;;;;;;26;19.1;;;;;;;5.38;70.56836;975.5614;;;;
2020/01/19 08:43:18;;;;;;;24.9;19.5;;;;;;;5.53;70.53613;975.5778;;;;
2020/01/19 08:45:53;;;;;;;21.2;18.8;;;;;;;6.24;67.94727;975.6133;;;;
2020/01/19 08:48:08;;;;;;;21.3;18.4;;;;;;;6.37;66.84375;975.663;;;;
2020/01/19 08:50:33;;;;;;;21.5;18.2;;;;;;;6.34;67.29102;975.6786;;;;
2020/01/19 08:52:59;;;;;;;22.2;18.2;;;;;;;6.45;66.87793;975.7659;;;;
2020/01/19 09:02:45;;;;;;;22.5;18.7;;;;;;;7.45;62.46289;975.8814;;;;
2020/01/19 09:05:04;;;;;;;22.5;18.4;;;;;;;6.75;64.78809;975.9771;;;;
2020/01/19 09:07:29;;;;;;;23.2;18.5;;;;;;;6.1;67.24219;976.0544;;;;
2020/01/19 09:09:54;;;;;;;24.2;19.2;;;;;;;5.75;69.5498;976.1002;;;;
2020/01/19 09:12:19;;;;;;;24.4;19.2;;;;;;;5.47;70.9082;976.0975;;;;
2020/01/19 09:14:44;;;;;;;24;19.9;;;;;;;5.48;70.93164;976.1278;;;;
2020/01/19 09:17:10;;;;;;;24.9;20.4;;;;;;;5.2;71.73145;976.1741;;;;
2020/01/19 09:19:35;;;;;;;21.8;18.7;;;;;;;5.28;71.95313;976.2182;;;;
2020/01/19 09:22:00;;;;;;;21.6;19.2;;;;;;;5.33;72.15723;976.2709;;;;
2020/01/19 09:24:25;;;;;;;26.9;21;;;;;;;5.34;72.48438;976.3046;;;;
2020/01/19 09:26:50;;;;;;;24.9;21;;;;;;;5.26;72.09863;976.321;;;;
2020/01/19 09:29:16;;;;;;;26.1;20.7;;;;;;;5.09;72.55664;976.3589;;;;
2020/01/19 09:31:41;;;;;;;24.2;21;;;;;;;5.04;73.18555;976.3784;;;;
2020/01/19 09:34:06;;;;;;;25.7;21.5;;;;;;;5.06;72.9209;976.4355;;;;
2020/01/19 09:36:31;;;;;;;24.4;21.2;;;;;;;5.02;73.27539;976.4288;;;;
2020/01/19 09:38:56;;;;;;;27.8;22;;;;;;;4.87;73.90723;976.5013;;;;
2020/01/19 09:41:21;;;;;;;27.7;22.6;;;;;;;4.75;74.26758;976.5613;;;;
2020/01/19 09:43:46;;;;;;;27.2;21.4;;;;;;;4.6;74.68262;976.5894;;;;
2020/01/19 09:46:12;;;;;;;28.8;22.5;;;;;;;4.66;74.85352;976.6276;;;;
2020/01/19 09:48:37;;;;;;;24.8;22.2;;;;;;;4.6;75.1084;976.6482;;;;
2020/01/19 09:51:02;;;;;;;29.9;24.6;;;;;;;4.67;74.64648;976.6717;;;;
2020/01/19 09:53:27;;;;;;;26.7;22.3;;;;;;;4.62;75.41406;976.7186;;;;
2020/01/19 09:55:55;;;;;;;32.8;21.2;;;;;;;4.59;75.59277;976.7813;;;;
2020/01/19 09:58:17;;;;;;;28.2;22.3;;;;;;;4.6;75.81348;976.7885;;;;
2020/01/19 10:00:42;;;;;;;28.7;23;;;;;;;4.48;75.87402;976.8197;;;;
2020/01/19 10:03:07;;;;;;;29.4;22.6;;;;;;;4.66;74.95898;976.8661;;;;
2020/01/19 10:05:32;;;;;;;25.9;22.2;;;;;;;4.69;74.44141;976.8873;;;;
2020/01/19 10:07:58;;;;;;;27.6;22.6;;;;;;;4.59;75.14355;976.9135;;;;
2020/01/19 10:10:23;;;;;;;28.7;22.8;;;;;;;4.49;74.61719;976.9135;;;;
2020/01/19 10:12:48;;;;;;;28.8;22.5;;;;;;;4.52;75.11914;976.9366;;;;
2020/01/19 10:15:13;;;;;;;29.5;22.8;;;;;;;4.52;74.87598;976.9858;;;;
2020/01/19 10:17:38;;;;;;;24.1;21.5;;;;;;;4.55;75.18164;977.0005;;;;
2020/01/19 10:20:03;;;;;;;27.9;22.7;;;;;;;4.53;75.11914;976.9846;;;;
2020/01/19 10:22:28;;;;;;;27.2;22.3;;;;;;;4.55;75.1582;977.0747;;;;
2020/01/19 10:24:53;;;;;;;28.4;22.1;;;;;;;4.54;75.13379;977.0312;;;;
2020/01/19 10:27:18;;;;;;;27.9;22.9;;;;;;;4.49;75.37988;977.0586;;;;
2020/01/19 10:29:43;;;;;;;31.1;22.8;;;;;;;4.43;74.66309;977.0453;;;;
2020/01/19 10:32:08;;;;;;;25.9;21.9;;;;;;;4.56;74.5127;977.0898;;;;
2020/01/19 10:34:34;;;;;;;28.4;22.7;;;;;;;4.5;74.89453;977.1085;;;;
2020/01/19 10:36:59;;;;;;;28.7;22.2;;;;;;;4.55;74.97363;977.0786;;;;
2020/01/19 10:39:24;;;;;;;28.6;23.4;;;;;;;4.45;75.24414;977.1395;;;;
2020/01/19 10:41:49;;;;;;;29.8;22.1;;;;;;;4.51;75.3584;977.135;;;;
2020/01/19 10:44:27;;;;;;;27.9;22.1;;;;;;;4.43;75.13477;977.1735;;;;
2020/01/19 10:51:34;;;;;;;28.5;22.5;;;;;;;4.32;75.23242;977.1586;;;;
2020/01/19 10:53:55;;;;;;;28.7;22.3;;;;;;;4.48;74.92676;977.1984;;;;
2020/01/19 10:56:20;;;;;;;27.5;21.3;;;;;;;4.55;74.39551;977.1995;;;;
2020/01/19 10:58:45;;;;;;;27.8;21.8;;;;;;;4.58;74.2041;977.2068;;;;
2020/01/19 11:01:10;;;;;;;28.6;21.2;;;;;;;4.59;74.12402;977.1987;;;;
2020/01/19 11:03:35;;;;;;;25.1;21.2;;;;;;;4.76;74.0957;977.2214;;;;
2020/01/19 11:06:00;;;;;;;28.2;22.2;;;;;;;4.76;73.72559;977.1994;;;;
2020/01/19 11:08:25;;;;;;;26.1;20.2;;;;;;;5.14;72.28809;977.2367;;;;
2020/01/19 11:10:50;;;;;;;25.8;19.7;;;;;;;5.1;71.28516;977.217;;;;
2020/01/19 11:13:15;;;;;;;27.6;19.8;;;;;;;5.09;71.48242;977.1597;;;;
2020/01/19 11:15:41;;;;;;;28.1;19.4;;;;;;;5.13;71.10449;977.1881;;;;
2020/01/19 11:18:06;;;;;;;25.7;19.4;;;;;;;5.08;71.49023;977.2035;;;;
2020/01/19 11:22:56;;;;;;;29.5;19.5;;;;;;;5.2;71.54492;977.2237;;;;
2020/01/19 11:25:21;;;;;;;29.9;21.8;;;;;;;5.15;72.28906;977.2464;;;;
2020/01/19 11:27:46;;;;;;;24.4;20.4;;;;;;;5.07;72.36816;977.2271;;;;
2020/01/19 11:30:11;;;;;;;27.6;20.7;;;;;;;5.1;72.29199;977.2078;;;;
2020/01/19 11:32:36;;;;;;;28.4;21.4;;;;;;;4.99;72.95801;977.1761;;;;
2020/01/19 11:35:02;;;;;;;31.7;22.4;;;;;;;4.95;72.84473;977.2294;;;;
2020/01/19 11:37:27;;;;;;;27.6;20.8;;;;;;;4.9;72.80176;977.2629;;;;
2020/01/19 11:39:52;;;;;;;29.5;22;;;;;;;4.99;72.95801;977.2633;;;;
2020/01/19 11:42:17;;;;;;;29;21.1;;;;;;;4.9;72.43262;977.2065;;;;
2020/01/19 11:44:50;;;;;;;29.8;20.9;;;;;;;4.98;71.65918;977.2056;;;;
2020/01/19 11:47:07;;;;;;;26.5;20.2;;;;;;;5;71.94043;977.2075;;;;
2020/01/19 11:49:32;;;;;;;29.6;21;;;;;;;4.88;72.05859;977.193;;;;
2020/01/19 11:51:57;;;;;;;28.2;20.1;;;;;;;5.04;72.08594;977.1922;;;;
2020/01/19 11:54:22;;;;;;;26.8;21.7;;;;;;;4.97;72.06152;977.1841;;;;
2020/01/19 11:56:47;;;;;;;25.7;20.5;;;;;;;4.96;74.66406;977.2438;;;;
2020/01/19 11:59:14;;;;;;;27.9;20.5;;;;;;;5.17;72.5127;977.213;;;;
2020/01/19 12:02:23;;;;;;;29.7;20.3;;;;;;;4.99;72.46094;977.2503;;;;
2020/01/19 12:04:03;;;;;;;29.5;21.1;;;;;;;5.12;71.78711;977.2043;;;;
2020/01/19 12:06:28;;;;;;;26.1;19.8;;;;;;;5.02;72.11816;977.1959;;;;
2020/01/19 12:08:53;;;;;;;26.5;19.4;;;;;;;5.26;70.83887;977.2455;;;;
2020/01/19 12:11:18;;;;;;;32.3;22;;;;;;;5.59;69.69922;977.2144;;;;
2020/01/19 12:13:43;;;;;;;29.2;21.2;;;;;;;5.59;69.74512;977.218;;;;
2020/01/19 12:16:08;;;;;;;26.7;20.6;;;;;;;5.65;69.63965;977.2217;;;;
2020/01/19 12:18:33;;;;;;;26.1;20;;;;;;;5.69;69.09082;977.165;;;;
2020/01/19 12:20:58;;;;;;;28.5;20.3;;;;;;;5.65;69.9873;977.1805;;;;
2020/01/19 12:23:23;;;;;;;26.4;19.2;;;;;;;5.86;67.55273;977.1628;;;;
2020/01/19 12:25:48;;;;;;;24.1;19.3;;;;;;;5.9;67.87109;977.2023;;;;
2020/01/19 12:28:14;;;;;;;25.4;19.2;;;;;;;6.1;66.5459;977.2152;;;;
2020/01/19 12:30:46;;;;;;;28.2;19.7;;;;;;;6.02;66.82324;977.1912;;;;
2020/01/19 12:33:05;;;;;;;24.9;18.1;;;;;;;6.26;66.35059;977.2209;;;;
2020/01/19 12:43:06;;;;;;;29.3;19.2;;;;;;;5.71;66.99609;977.3081;;;;
2020/01/19 12:45:10;;;;;;;26.1;20.4;;;;;;;5.62;68.00195;977.3024;;;;
2020/01/19 12:47:35;;;;;;;26.3;20.8;;;;;;;5.6;67.89355;977.2977;;;;
2020/01/19 12:50:00;;;;;;;27.6;21.5;;;;;;;5.6;68.7041;977.3091;;;;
2020/01/19 12:52:25;;;;;;;26.8;20.5;;;;;;;5.56;68.10742;977.3172;;;;
2020/01/19 12:54:50;;;;;;;29.7;21.6;;;;;;;5.51;69.18848;977.329;;;;
2020/01/19 12:57:16;;;;;;;27.3;22;;;;;;;5.53;68.44922;977.372;;;;
2020/01/19 12:59:41;;;;;;;31.1;22.6;;;;;;;5.7;68.48926;977.3708;;;;
2020/01/19 13:02:06;;;;;;;27.9;21.6;;;;;;;5.56;67.58496;977.3681;;;;
2020/01/19 13:04:31;;;;;;;30.7;22.8;;;;;;;5.74;68.78516;977.4051;;;;
2020/01/19 13:06:56;;;;;;;29.3;22.3;;;;;;;5.78;67.88672;977.3577;;;;
2020/01/19 13:09:21;;;;;;;31.4;21.7;;;;;;;5.69;66.16895;977.3847;;;;
2020/01/19 13:11:46;;;;;;;32.1;21.8;;;;;;;5.58;66.02539;977.4308;;;;
2020/01/19 13:14:11;;;;;;;31.4;22.5;;;;;;;5.56;68.2334;977.4423;;;;
2020/01/19 13:16:37;;;;;;;26.9;22;;;;;;;5.63;68.25684;977.4064;;;;
2020/01/19 13:19:02;;;;;;;29.8;22.7;;;;;;;5.54;68.37109;977.4388;;;;
2020/01/19 13:21:27;;;;;;;34.2;23.2;;;;;;;5.55;67.42188;977.541;;;;
2020/01/19 13:23:52;;;;;;;32.6;22.5;;;;;;;5.53;67.4668;977.5842;;;;
2020/01/19 13:26:17;;;;;;;32.1;22.8;;;;;;;5.48;69.19434;977.6233;;;;
2020/01/19 13:28:43;;;;;;;33.6;23.4;;;;;;;5.31;67.36035;977.6133;;;;
2020/01/19 13:31:08;;;;;;;34.2;23.2;;;;;;;5.35;68.1084;977.6205;;;;
2020/01/19 13:33:33;;;;;;;32.3;23.1;;;;;;;5.33;69.23926;977.6741;;;;
2020/01/19 13:35:58;;;;;;;33;23.6;;;;;;;5.21;68.97754;977.6825;;;;
2020/01/19 13:38:23;;;;;;;28.3;22.8;;;;;;;5.24;69.72266;977.7117;;;;
2020/01/19 13:40:48;;;;;;;34;25.4;;;;;;;5.16;70.2998;977.7625;;;;
2020/01/19 13:43:13;;;;;;;33.3;23.5;;;;;;;5.11;68.81055;977.7674;;;;
2020/01/19 13:45:38;;;;;;;32.6;22.3;;;;;;;5.13;68.66211;977.8156;;;;
2020/01/19 13:48:04;;;;;;;27.4;20.6;;;;;;;5.18;67.5957;977.8531;;;;
2020/01/19 13:50:29;;;;;;;29.6;21.5;;;;;;;5.08;68.80566;977.8753;;;;
2020/01/19 13:52:54;;;;;;;26.6;20.7;;;;;;;5.14;68.33984;977.8725;;;;
2020/01/19 13:55:19;;;;;;;30.6;21.1;;;;;;;5.13;68.69824;977.8873;;;;
2020/01/19 13:57:45;;;;;;;32.5;22.1;;;;;;;5.18;69.48145;977.8942;;;;
2020/01/19 14:00:10;;;;;;;29.4;21.1;;;;;;;5.25;67.6748;977.9617;;;;
2020/01/19 14:02:35;;;;;;;29.5;19.8;;;;;;;5.49;67.45898;977.9678;;;;
2020/01/19 14:05:00;;;;;;;25.4;19.6;;;;;;;5.62;65.9043;977.9506;;;;
2020/01/19 14:07:25;;;;;;;37;26.2;;;;;;;5.78;66.57617;978.0134;;;;
2020/01/19 14:09:50;;;;;;;42.2;30.3;;;;;;;5.99;65.6123;977.9958;;;;
2020/01/19 14:12:16;;;;;;;39.9;28.9;;;;;;;6.01;66.38184;977.9855;;;;
2020/01/19 14:14:41;;;;;;;31.2;23.2;;;;;;;6.05;67.03613;978.0095;;;;
2020/01/19 14:17:06;;;;;;;25.7;18.5;;;;;;;6.1;65.93164;978.0053;;;;
2020/01/19 14:19:31;;;;;;;27.6;18.5;;;;;;;6.31;64.65234;978.0559;;;;
2020/01/19 14:21:56;;;;;;;26.6;19.9;;;;;;;6.5;63.97363;978.1125;;;;
2020/01/19 14:24:22;;;;;;;25.2;17.5;;;;;;;6.52;60.69043;978.1649;;;;
2020/01/19 14:27:01;;;;;;;24;16.8;;;;;;;6.49;60.91699;978.16;;;;
2020/01/19 14:32:54;;;;;;;22.3;15.9;;;;;;;6.22;60.22852;978.1948;;;;
2020/01/19 14:34:10;;;;;;;23.1;16.9;;;;;;;6.16;61.92676;978.2276;;;;
2020/01/19 14:36:27;;;;;;;28.9;17.8;;;;;;;6.03;61.84961;978.314;;;;
2020/01/19 14:38:52;;;;;;;25.3;17;;;;;;;5.88;63.54395;978.302;;;;
2020/01/19 14:41:17;;;;;;;23.2;16.5;;;;;;;5.9;63.05957;978.3806;;;;
2020/01/19 14:43:42;;;;;;;22.3;15.7;;;;;;;5.74;62.8623;978.4014;;;;
2020/01/19 14:46:07;;;;;;;23.9;17.2;;;;;;;5.72;63.91309;978.4141;;;;